PBD198 URMO-UUWW
Flight info
| Callsign | PBD198 |
|---|---|
| Flight time | 2h 31m |
| Altitude | 37000 |
| Route | GORAK5G GORAK R103 LELOT DCT BEMES DCT VULFI DCT TUVGI DCT EVZUN DCT ZIZAR DCT VAZLU DCT UZZID DCT NOKLI N72 WGD G481 OBABI T619 UMRAL P163 LAMKO DCT LEKDO LEKDO3B |
| Aircraft | B738/M-SDE2E3FGHIRWXY/LB1 |
Departure
| Time | 2026-04-30 18:30 |
|---|---|
| Airport | Vladikavkaz Beslan International Airport (URMO) |
Arrival
| Time | 2026-04-30 21:02 |
|---|---|
| Airport | Vnukovo International Airport (UUWW) |
| Time | Latitude | Longitude | Altitude | Speed | Heading |
|---|---|---|---|---|---|
| 2026-04-30 18:04 | 43.20283 | 44.60665 | 1681 ft | 0 kts | 11° |
| 2026-04-30 18:25 | 43.20290 | 44.60667 | 1689 ft | 4 kts | 11° |
| 2026-04-30 18:25 | 43.20357 | 44.60604 | 1680 ft | 8 kts | 283° |
| 2026-04-30 18:25 | 43.20375 | 44.60538 | 1689 ft | 7 kts | 309° |
| 2026-04-30 18:26 | 43.20475 | 44.60542 | 1682 ft | 9 kts | 11° |
| 2026-04-30 18:26 | 43.20542 | 44.60512 | 1674 ft | 11 kts | 302° |
| 2026-04-30 18:26 | 43.20561 | 44.60397 | 1681 ft | 15 kts | 281° |
| 2026-04-30 18:27 | 43.20604 | 44.60108 | 1672 ft | 15 kts | 281° |
| 2026-04-30 18:27 | 43.20626 | 44.59962 | 1673 ft | 19 kts | 281° |
| 2026-04-30 18:28 | 43.20687 | 44.59550 | 1673 ft | 22 kts | 281° |
| 2026-04-30 18:28 | 43.20717 | 44.59343 | 1674 ft | 22 kts | 281° |
| 2026-04-30 18:28 | 43.20768 | 44.58997 | 1670 ft | 7 kts | 273° |
| 2026-04-30 18:29 | 43.20761 | 44.58922 | 1671 ft | 3 kts | 265° |
| 2026-04-30 18:29 | 43.20762 | 44.59045 | 1671 ft | 24 kts | 101° |
| 2026-04-30 18:30 | 43.20484 | 44.60930 | 1688 ft | 169 kts | 101° |
| 2026-04-30 18:30 | 43.19940 | 44.64573 | 2982 ft | 204 kts | 102° |
| 2026-04-30 18:31 | 43.19661 | 44.66438 | 4055 ft | 200 kts | 102° |
| 2026-04-30 18:31 | 43.19095 | 44.70226 | 4995 ft | 210 kts | 102° |
| 2026-04-30 18:32 | 43.18485 | 44.74178 | 5561 ft | 212 kts | 108° |
| 2026-04-30 18:32 | 43.17653 | 44.75797 | 5992 ft | 212 kts | 147° |
| 2026-04-30 18:32 | 43.14886 | 44.75749 | 6703 ft | 220 kts | 217° |
| 2026-04-30 18:33 | 43.13898 | 44.74088 | 6838 ft | 235 kts | 246° |
| 2026-04-30 18:33 | 43.12896 | 44.69489 | 7379 ft | 266 kts | 253° |
| 2026-04-30 18:33 | 43.12380 | 44.67051 | 8075 ft | 266 kts | 253° |
| 2026-04-30 18:34 | 43.11853 | 44.64627 | 8811 ft | 266 kts | 252° |
| 2026-04-30 18:34 | 43.11125 | 44.59665 | 10175 ft | 273 kts | 275° |
| 2026-04-30 18:34 | 43.11484 | 44.57145 | 10871 ft | 273 kts | 278° |
| 2026-04-30 18:35 | 43.11877 | 44.54619 | 11584 ft | 272 kts | 279° |
| 2026-04-30 18:35 | 43.12633 | 44.52230 | 12256 ft | 281 kts | 303° |
| 2026-04-30 18:35 | 43.14131 | 44.50471 | 12974 ft | 292 kts | 327° |
| 2026-04-30 18:36 | 43.18296 | 44.50047 | 14272 ft | 318 kts | 5° |
| 2026-04-30 18:36 | 43.20457 | 44.50755 | 14994 ft | 321 kts | 18° |
| 2026-04-30 18:36 | 43.23778 | 44.55098 | 15758 ft | 355 kts | 53° |
| 2026-04-30 18:37 | 43.25208 | 44.57980 | 15911 ft | 375 kts | 54° |
| 2026-04-30 18:37 | 43.26667 | 44.60983 | 16058 ft | 392 kts | 54° |
| 2026-04-30 18:37 | 43.28208 | 44.64151 | 16378 ft | 404 kts | 54° |
| 2026-04-30 18:37 | 43.29784 | 44.67372 | 16935 ft | 408 kts | 54° |
| 2026-04-30 18:38 | 43.31378 | 44.70607 | 17591 ft | 410 kts | 54° |
| 2026-04-30 18:38 | 43.32983 | 44.73849 | 18215 ft | 412 kts | 54° |
| 2026-04-30 18:38 | 43.34607 | 44.77120 | 18727 ft | 417 kts | 54° |
| 2026-04-30 18:38 | 43.36248 | 44.80423 | 19196 ft | 421 kts | 54° |
| 2026-04-30 18:39 | 43.37906 | 44.83761 | 19690 ft | 424 kts | 54° |
| 2026-04-30 18:39 | 43.39571 | 44.87121 | 20175 ft | 428 kts | 54° |
| 2026-04-30 18:39 | 43.41191 | 44.90513 | 20640 ft | 432 kts | 56° |
| 2026-04-30 18:39 | 43.42746 | 44.94065 | 21109 ft | 436 kts | 58° |
| 2026-04-30 18:40 | 43.44269 | 44.97689 | 21567 ft | 439 kts | 58° |
| 2026-04-30 18:40 | 43.45791 | 45.01352 | 22019 ft | 443 kts | 59° |
| 2026-04-30 18:40 | 43.47331 | 45.05053 | 22461 ft | 447 kts | 58° |
| 2026-04-30 18:40 | 43.48888 | 45.08775 | 22907 ft | 450 kts | 58° |
| 2026-04-30 18:41 | 43.50462 | 45.12519 | 23359 ft | 454 kts | 58° |
| 2026-04-30 18:41 | 43.52053 | 45.16289 | 23747 ft | 457 kts | 58° |
| 2026-04-30 18:41 | 43.53661 | 45.20091 | 24092 ft | 461 kts | 58° |
| 2026-04-30 18:41 | 43.55256 | 45.23864 | 24463 ft | 463 kts | 58° |
| 2026-04-30 18:42 | 43.56882 | 45.27710 | 24829 ft | 466 kts | 58° |
| 2026-04-30 18:42 | 43.60156 | 45.35472 | 25535 ft | 471 kts | 58° |
| 2026-04-30 18:42 | 43.61805 | 45.39391 | 25879 ft | 473 kts | 58° |
| 2026-04-30 18:45 | 43.78675 | 45.79798 | 28967 ft | 498 kts | 57° |
| 2026-04-30 18:45 | 43.80402 | 45.83967 | 29256 ft | 501 kts | 57° |
| 2026-04-30 18:45 | 43.82140 | 45.88168 | 29479 ft | 504 kts | 57° |
| 2026-04-30 18:46 | 43.83861 | 45.92335 | 29715 ft | 507 kts | 57° |
| 2026-04-30 18:46 | 43.85611 | 45.96578 | 30006 ft | 508 kts | 57° |
| 2026-04-30 18:46 | 43.87361 | 46.00829 | 30348 ft | 508 kts | 57° |
| 2026-04-30 18:46 | 43.89107 | 46.05078 | 30697 ft | 506 kts | 57° |
| 2026-04-30 18:47 | 43.90846 | 46.09315 | 31029 ft | 505 kts | 57° |
| 2026-04-30 18:47 | 43.92582 | 46.13552 | 31327 ft | 505 kts | 57° |
| 2026-04-30 18:47 | 43.94318 | 46.17791 | 31557 ft | 507 kts | 57° |
| 2026-04-30 18:47 | 43.96058 | 46.22046 | 31836 ft | 507 kts | 57° |
| 2026-04-30 18:48 | 43.97792 | 46.26295 | 32152 ft | 506 kts | 57° |
| 2026-04-30 18:48 | 43.99500 | 46.30487 | 32446 ft | 505 kts | 57° |
| 2026-04-30 18:48 | 44.01234 | 46.34746 | 32573 ft | 508 kts | 57° |
| 2026-04-30 18:48 | 44.02969 | 46.39016 | 32703 ft | 507 kts | 57° |
| 2026-04-30 18:49 | 44.04700 | 46.43283 | 32846 ft | 506 kts | 57° |
| 2026-04-30 18:49 | 44.06427 | 46.47547 | 32988 ft | 506 kts | 57° |
| 2026-04-30 18:49 | 44.08152 | 46.51813 | 33113 ft | 506 kts | 57° |
| 2026-04-30 18:50 | 44.11613 | 46.60385 | 33145 ft | 509 kts | 57° |
| 2026-04-30 18:50 | 44.15039 | 46.68902 | 33166 ft | 506 kts | 57° |
| 2026-04-30 18:51 | 44.18468 | 46.77450 | 33148 ft | 505 kts | 57° |
| 2026-04-30 18:51 | 44.21884 | 46.85992 | 33151 ft | 504 kts | 57° |
| 2026-04-30 18:52 | 44.25290 | 46.94535 | 33153 ft | 504 kts | 57° |
| 2026-04-30 18:52 | 44.28692 | 47.03090 | 33158 ft | 505 kts | 57° |
| 2026-04-30 18:53 | 44.32070 | 47.11613 | 33153 ft | 505 kts | 57° |
| 2026-04-30 18:53 | 44.35469 | 47.20216 | 33157 ft | 506 kts | 57° |
| 2026-04-30 18:54 | 44.38867 | 47.28843 | 33168 ft | 507 kts | 57° |
| 2026-04-30 18:54 | 44.42265 | 47.37496 | 33158 ft | 508 kts | 57° |
| 2026-04-30 18:55 | 44.45642 | 47.46122 | 33160 ft | 509 kts | 57° |
| 2026-04-30 18:55 | 44.49483 | 47.54312 | 33149 ft | 494 kts | 35° |
| 2026-04-30 18:55 | 44.52224 | 47.57055 | 33172 ft | 478 kts | 20° |
| 2026-04-30 18:56 | 44.58354 | 47.59676 | 33152 ft | 449 kts | 354° |
| 2026-04-30 18:56 | 44.61440 | 47.59742 | 33169 ft | 443 kts | 351° |
| 2026-04-30 18:57 | 44.70652 | 47.59512 | 33352 ft | 445 kts | 350° |
| 2026-04-30 18:57 | 44.73738 | 47.59446 | 33712 ft | 443 kts | 350° |
| 2026-04-30 18:57 | 44.76808 | 47.59399 | 34144 ft | 439 kts | 350° |
| 2026-04-30 18:58 | 44.82892 | 47.59335 | 34603 ft | 438 kts | 350° |
| 2026-04-30 18:58 | 44.85952 | 47.59304 | 34705 ft | 441 kts | 350° |
| 2026-04-30 18:58 | 44.89026 | 47.59275 | 34880 ft | 442 kts | 351° |
| 2026-04-30 18:59 | 44.95182 | 47.59223 | 35224 ft | 444 kts | 351° |
| 2026-04-30 19:00 | 45.04397 | 47.59148 | 35853 ft | 442 kts | 351° |
| 2026-04-30 19:00 | 45.07463 | 47.59124 | 36094 ft | 440 kts | 351° |
| 2026-04-30 19:00 | 45.13570 | 47.59073 | 36464 ft | 440 kts | 351° |
| 2026-04-30 19:01 | 45.19705 | 47.59015 | 36726 ft | 442 kts | 352° |
| 2026-04-30 19:01 | 45.22786 | 47.58987 | 36843 ft | 444 kts | 352° |
| 2026-04-30 19:02 | 45.28949 | 47.58930 | 37012 ft | 447 kts | 352° |
| 2026-04-30 19:02 | 45.35195 | 47.58876 | 37141 ft | 452 kts | 352° |
| 2026-04-30 19:03 | 45.41529 | 47.58817 | 37155 ft | 459 kts | 352° |
| 2026-04-30 19:04 | 45.54455 | 47.58707 | 37142 ft | 464 kts | 352° |
| 2026-04-30 19:05 | 45.67182 | 47.58607 | 37135 ft | 455 kts | 352° |
| 2026-04-30 19:06 | 45.79859 | 47.58484 | 37158 ft | 462 kts | 352° |
| 2026-04-30 19:06 | 45.89590 | 47.58395 | 37156 ft | 470 kts | 352° |
| 2026-04-30 19:07 | 45.99361 | 47.58316 | 37163 ft | 466 kts | 352° |
| 2026-04-30 19:08 | 46.12186 | 47.58202 | 37149 ft | 459 kts | 352° |
| 2026-04-30 19:09 | 46.21671 | 47.57851 | 37129 ft | 446 kts | 338° |
| 2026-04-30 19:09 | 46.24475 | 47.56277 | 37204 ft | 426 kts | 322° |
| 2026-04-30 19:09 | 46.26853 | 47.53798 | 37153 ft | 418 kts | 309° |
| 2026-04-30 19:10 | 46.30300 | 47.47184 | 37165 ft | 413 kts | 297° |
| 2026-04-30 19:10 | 46.33376 | 47.40111 | 37158 ft | 418 kts | 296° |
| 2026-04-30 19:11 | 46.37961 | 47.29634 | 37148 ft | 407 kts | 297° |
| 2026-04-30 19:12 | 46.41023 | 47.22698 | 37164 ft | 410 kts | 297° |
| 2026-04-30 19:12 | 46.44114 | 47.15702 | 37161 ft | 413 kts | 297° |
| 2026-04-30 19:13 | 46.50345 | 47.01561 | 37159 ft | 418 kts | 297° |
| 2026-04-30 19:14 | 46.53458 | 46.94469 | 37157 ft | 420 kts | 297° |
| 2026-04-30 19:14 | 46.56562 | 46.87389 | 37144 ft | 411 kts | 297° |
| 2026-04-30 19:15 | 46.59609 | 46.80415 | 37148 ft | 407 kts | 297° |
| 2026-04-30 19:15 | 46.64118 | 46.70052 | 37153 ft | 405 kts | 297° |
| 2026-04-30 19:16 | 46.67122 | 46.63126 | 37157 ft | 406 kts | 296° |
| 2026-04-30 19:17 | 46.71636 | 46.52689 | 37156 ft | 406 kts | 296° |
| 2026-04-30 19:17 | 46.76154 | 46.42203 | 37159 ft | 408 kts | 296° |
| 2026-04-30 19:18 | 46.80667 | 46.31692 | 37167 ft | 411 kts | 296° |
| 2026-04-30 19:19 | 46.83703 | 46.24597 | 37164 ft | 413 kts | 296° |
| 2026-04-30 19:19 | 46.88272 | 46.13887 | 37166 ft | 415 kts | 296° |
| 2026-04-30 19:20 | 46.91548 | 46.06890 | 37156 ft | 424 kts | 307° |
| 2026-04-30 19:20 | 46.96140 | 46.01364 | 37175 ft | 439 kts | 324° |
| 2026-04-30 19:21 | 46.98875 | 45.99302 | 37179 ft | 444 kts | 327° |
| 2026-04-30 19:22 | 47.10130 | 45.91623 | 37176 ft | 447 kts | 328° |
| 2026-04-30 19:23 | 47.26953 | 45.79830 | 37168 ft | 447 kts | 328° |
| 2026-04-30 19:24 | 47.35362 | 45.73881 | 37168 ft | 446 kts | 328° |
| 2026-04-30 19:25 | 47.49281 | 45.63992 | 37165 ft | 444 kts | 328° |
| 2026-04-30 19:26 | 47.60400 | 45.56048 | 37173 ft | 443 kts | 328° |
| 2026-04-30 19:27 | 47.68722 | 45.50077 | 37168 ft | 443 kts | 328° |
| 2026-04-30 19:28 | 47.76997 | 45.44121 | 37169 ft | 442 kts | 328° |
| 2026-04-30 19:28 | 47.82080 | 45.39229 | 37175 ft | 430 kts | 312° |
| 2026-04-30 19:29 | 47.86470 | 45.33195 | 37166 ft | 430 kts | 311° |
| 2026-04-30 19:30 | 47.95266 | 45.21171 | 37168 ft | 431 kts | 312° |
| 2026-04-30 19:31 | 48.04315 | 45.09301 | 37164 ft | 439 kts | 319° |
| 2026-04-30 19:31 | 48.11986 | 45.01720 | 37164 ft | 442 kts | 321° |
| 2026-04-30 19:32 | 48.17086 | 44.96689 | 37180 ft | 443 kts | 321° |
| 2026-04-30 19:32 | 48.22204 | 44.91553 | 37168 ft | 443 kts | 320° |
| 2026-04-30 19:33 | 48.27319 | 44.86382 | 37161 ft | 443 kts | 320° |
| 2026-04-30 19:33 | 48.32438 | 44.81194 | 37158 ft | 444 kts | 320° |
| 2026-04-30 19:34 | 48.37515 | 44.76037 | 37167 ft | 444 kts | 320° |
| 2026-04-30 19:35 | 48.45182 | 44.68228 | 37157 ft | 443 kts | 320° |
| 2026-04-30 19:35 | 48.50277 | 44.63023 | 37158 ft | 442 kts | 320° |
| 2026-04-30 19:36 | 48.55359 | 44.57815 | 37182 ft | 441 kts | 320° |
| 2026-04-30 19:36 | 48.62929 | 44.50025 | 37157 ft | 440 kts | 320° |
| 2026-04-30 19:37 | 48.67978 | 44.44813 | 37156 ft | 439 kts | 320° |
| 2026-04-30 19:37 | 48.73018 | 44.39599 | 37159 ft | 438 kts | 320° |
| 2026-04-30 19:38 | 48.78110 | 44.34486 | 37149 ft | 443 kts | 326° |
| 2026-04-30 19:38 | 48.83852 | 44.30899 | 37165 ft | 449 kts | 334° |
| 2026-04-30 19:39 | 48.89689 | 44.27714 | 37159 ft | 449 kts | 335° |
| 2026-04-30 19:39 | 48.95561 | 44.24458 | 37154 ft | 449 kts | 334° |
| 2026-04-30 19:40 | 49.01423 | 44.21144 | 37164 ft | 450 kts | 334° |
| 2026-04-30 19:40 | 49.07295 | 44.17798 | 37164 ft | 451 kts | 334° |
| 2026-04-30 19:41 | 49.13139 | 44.14459 | 37153 ft | 452 kts | 334° |
| 2026-04-30 19:41 | 49.19031 | 44.11085 | 37157 ft | 453 kts | 334° |
| 2026-04-30 19:42 | 49.24938 | 44.07695 | 37173 ft | 454 kts | 334° |
| 2026-04-30 19:42 | 49.30860 | 44.04288 | 37154 ft | 455 kts | 334° |
| 2026-04-30 19:43 | 49.36790 | 44.00868 | 37151 ft | 455 kts | 334° |
| 2026-04-30 19:44 | 49.45643 | 43.95745 | 37152 ft | 455 kts | 334° |
| 2026-04-30 19:44 | 49.51561 | 43.92288 | 37153 ft | 454 kts | 332° |
| 2026-04-30 19:45 | 49.57160 | 43.87935 | 37154 ft | 449 kts | 326° |
| 2026-04-30 19:45 | 49.62610 | 43.83221 | 37154 ft | 449 kts | 326° |
| 2026-04-30 19:46 | 49.68027 | 43.78562 | 37146 ft | 449 kts | 326° |
| 2026-04-30 19:46 | 49.73499 | 43.73922 | 37167 ft | 449 kts | 327° |
| 2026-04-30 19:47 | 49.78980 | 43.69294 | 37163 ft | 448 kts | 327° |
| 2026-04-30 19:47 | 49.84417 | 43.64697 | 37155 ft | 448 kts | 327° |
| 2026-04-30 19:48 | 49.89887 | 43.60057 | 37158 ft | 448 kts | 327° |
| 2026-04-30 19:48 | 49.95361 | 43.55401 | 37205 ft | 451 kts | 327° |
| 2026-04-30 19:48 | 49.98113 | 43.53054 | 37341 ft | 451 kts | 327° |
| 2026-04-30 19:49 | 50.00861 | 43.50708 | 37491 ft | 451 kts | 327° |
| 2026-04-30 19:49 | 50.06364 | 43.46003 | 37740 ft | 451 kts | 327° |
| 2026-04-30 19:49 | 50.09073 | 43.43682 | 37861 ft | 450 kts | 327° |
| 2026-04-30 19:50 | 50.11812 | 43.41333 | 37990 ft | 449 kts | 327° |
| 2026-04-30 19:50 | 50.14546 | 43.38985 | 38112 ft | 449 kts | 327° |
| 2026-04-30 19:50 | 50.20031 | 43.34260 | 38160 ft | 452 kts | 327° |
| 2026-04-30 19:51 | 50.25550 | 43.29496 | 38173 ft | 454 kts | 327° |
| 2026-04-30 19:51 | 50.31047 | 43.24739 | 38170 ft | 455 kts | 327° |
| 2026-04-30 19:52 | 50.36590 | 43.19929 | 38167 ft | 455 kts | 327° |
| 2026-04-30 19:52 | 50.42082 | 43.15154 | 38170 ft | 448 kts | 327° |
| 2026-04-30 19:53 | 50.47509 | 43.10421 | 38161 ft | 444 kts | 327° |
| 2026-04-30 19:53 | 50.52866 | 43.05732 | 38181 ft | 445 kts | 327° |
| 2026-04-30 19:54 | 50.58311 | 43.00952 | 38183 ft | 451 kts | 327° |
| 2026-04-30 19:54 | 50.63831 | 42.96099 | 38188 ft | 457 kts | 327° |
| 2026-04-30 19:55 | 50.69426 | 42.91204 | 38176 ft | 462 kts | 330° |
| 2026-04-30 19:55 | 50.75404 | 42.87519 | 38172 ft | 458 kts | 338° |
| 2026-04-30 19:56 | 50.81360 | 42.84347 | 38182 ft | 454 kts | 338° |
| 2026-04-30 19:56 | 50.87321 | 42.81119 | 38191 ft | 452 kts | 338° |
| 2026-04-30 19:57 | 50.93250 | 42.77828 | 38177 ft | 451 kts | 337° |
| 2026-04-30 19:57 | 50.99160 | 42.74509 | 38180 ft | 451 kts | 337° |
| 2026-04-30 19:58 | 51.05037 | 42.71196 | 38183 ft | 452 kts | 337° |
| 2026-04-30 19:58 | 51.10966 | 42.67847 | 38186 ft | 453 kts | 337° |
| 2026-04-30 19:59 | 51.15914 | 42.65046 | 38194 ft | 455 kts | 338° |
| 2026-04-30 20:00 | 51.24885 | 42.59953 | 38182 ft | 458 kts | 338° |
| 2026-04-30 20:00 | 51.31866 | 42.55975 | 38189 ft | 459 kts | 337° |
| 2026-04-30 20:01 | 51.39887 | 42.51389 | 38192 ft | 461 kts | 338° |
| 2026-04-30 20:01 | 51.45926 | 42.47925 | 38182 ft | 461 kts | 338° |
| 2026-04-30 20:02 | 51.55954 | 42.42150 | 38180 ft | 460 kts | 338° |
| 2026-04-30 20:03 | 51.63959 | 42.37522 | 38176 ft | 458 kts | 338° |
| 2026-04-30 20:03 | 51.69944 | 42.34049 | 38179 ft | 457 kts | 338° |
| 2026-04-30 20:04 | 51.75914 | 42.30576 | 38175 ft | 455 kts | 338° |
| 2026-04-30 20:05 | 51.84790 | 42.25393 | 38179 ft | 453 kts | 338° |
| 2026-04-30 20:05 | 51.93666 | 42.20188 | 38175 ft | 452 kts | 338° |
| 2026-04-30 20:06 | 51.99577 | 42.16710 | 38186 ft | 452 kts | 338° |
| 2026-04-30 20:06 | 52.05491 | 42.13220 | 38179 ft | 452 kts | 338° |
| 2026-04-30 20:07 | 52.11372 | 42.09758 | 38187 ft | 453 kts | 338° |
| 2026-04-30 20:08 | 52.20355 | 42.04830 | 38197 ft | 455 kts | 339° |
| 2026-04-30 20:08 | 52.26366 | 42.01522 | 38188 ft | 456 kts | 339° |
| 2026-04-30 20:09 | 52.32389 | 41.98173 | 38192 ft | 458 kts | 339° |
| 2026-04-30 20:09 | 52.41742 | 41.95504 | 38193 ft | 464 kts | 360° |
| 2026-04-30 20:10 | 52.51423 | 41.96234 | 38201 ft | 465 kts | 1° |
| 2026-04-30 20:11 | 52.61122 | 41.96806 | 38186 ft | 465 kts | 0° |
| 2026-04-30 20:11 | 52.67531 | 41.96987 | 38173 ft | 462 kts | 352° |
| 2026-04-30 20:12 | 52.73532 | 41.93717 | 38182 ft | 454 kts | 327° |
| 2026-04-30 20:12 | 52.76056 | 41.90642 | 38215 ft | 451 kts | 319° |
| 2026-04-30 20:13 | 52.80873 | 41.84004 | 38207 ft | 451 kts | 319° |
| 2026-04-30 20:13 | 52.85694 | 41.77374 | 38187 ft | 451 kts | 319° |
| 2026-04-30 20:14 | 52.90503 | 41.70833 | 38193 ft | 450 kts | 319° |
| 2026-04-30 20:14 | 52.95349 | 41.64259 | 38192 ft | 450 kts | 319° |
| 2026-04-30 20:15 | 53.00191 | 41.57671 | 38196 ft | 450 kts | 319° |
| 2026-04-30 20:15 | 53.05031 | 41.51062 | 38194 ft | 451 kts | 319° |
| 2026-04-30 20:16 | 53.09835 | 41.44481 | 38193 ft | 450 kts | 319° |
| 2026-04-30 20:16 | 53.14668 | 41.37841 | 38200 ft | 451 kts | 319° |
| 2026-04-30 20:17 | 53.19502 | 41.31182 | 38201 ft | 451 kts | 319° |
| 2026-04-30 20:17 | 53.23897 | 41.23783 | 38199 ft | 449 kts | 304° |
| 2026-04-30 20:18 | 53.27222 | 41.14962 | 38200 ft | 449 kts | 301° |
| 2026-04-30 20:18 | 53.30452 | 41.06095 | 38199 ft | 450 kts | 301° |
| 2026-04-30 20:19 | 53.33721 | 40.97183 | 38196 ft | 450 kts | 301° |
| 2026-04-30 20:19 | 53.37012 | 40.88265 | 38205 ft | 450 kts | 302° |
| 2026-04-30 20:20 | 53.40283 | 40.79398 | 38203 ft | 451 kts | 301° |
| 2026-04-30 20:20 | 53.43573 | 40.70449 | 38204 ft | 451 kts | 301° |
| 2026-04-30 20:21 | 53.46856 | 40.61486 | 38208 ft | 451 kts | 301° |
| 2026-04-30 20:21 | 53.50136 | 40.52496 | 38207 ft | 451 kts | 301° |
| 2026-04-30 20:22 | 53.53410 | 40.43490 | 38209 ft | 452 kts | 301° |
| 2026-04-30 20:22 | 53.56657 | 40.34525 | 38207 ft | 452 kts | 301° |
| 2026-04-30 20:23 | 53.59927 | 40.25466 | 37978 ft | 456 kts | 301° |
| 2026-04-30 20:23 | 53.61572 | 40.20894 | 37724 ft | 455 kts | 301° |
| 2026-04-30 20:23 | 53.63200 | 40.16363 | 37461 ft | 450 kts | 301° |
| 2026-04-30 20:23 | 53.64808 | 40.11879 | 37203 ft | 443 kts | 301° |
| 2026-04-30 20:24 | 53.66389 | 40.07461 | 36949 ft | 438 kts | 301° |
| 2026-04-30 20:24 | 53.67954 | 40.03081 | 36703 ft | 435 kts | 301° |
| 2026-04-30 20:24 | 53.69485 | 39.98788 | 36459 ft | 431 kts | 301° |
| 2026-04-30 20:24 | 53.71026 | 39.94463 | 36216 ft | 429 kts | 301° |
| 2026-04-30 20:25 | 53.74074 | 39.85881 | 35752 ft | 424 kts | 301° |
| 2026-04-30 20:25 | 53.75584 | 39.81616 | 35517 ft | 422 kts | 301° |
| 2026-04-30 20:26 | 53.78583 | 39.73130 | 35063 ft | 419 kts | 301° |
| 2026-04-30 20:26 | 53.81535 | 39.64748 | 34610 ft | 416 kts | 301° |
| 2026-04-30 20:26 | 53.83008 | 39.60554 | 34361 ft | 413 kts | 301° |
| 2026-04-30 20:27 | 53.85912 | 39.52264 | 33625 ft | 406 kts | 301° |
| 2026-04-30 20:27 | 53.88761 | 39.44103 | 32876 ft | 399 kts | 301° |
| 2026-04-30 20:28 | 53.91564 | 39.36050 | 32151 ft | 393 kts | 301° |
| 2026-04-30 20:28 | 53.94301 | 39.28161 | 31447 ft | 388 kts | 301° |
| 2026-04-30 20:29 | 53.97016 | 39.20312 | 30749 ft | 383 kts | 301° |
| 2026-04-30 20:30 | 54.01022 | 39.08682 | 29604 ft | 376 kts | 301° |
| 2026-04-30 20:30 | 54.04933 | 38.97367 | 28529 ft | 367 kts | 301° |
| 2026-04-30 20:31 | 54.08769 | 38.86231 | 27458 ft | 359 kts | 300° |
| 2026-04-30 20:32 | 54.12455 | 38.75243 | 26414 ft | 353 kts | 300° |
| 2026-04-30 20:32 | 54.14890 | 38.68011 | 25735 ft | 350 kts | 300° |
| 2026-04-30 20:33 | 54.16085 | 38.64465 | 25401 ft | 349 kts | 300° |
| 2026-04-30 20:33 | 54.18492 | 38.57315 | 24727 ft | 346 kts | 300° |
| 2026-04-30 20:33 | 54.19689 | 38.53752 | 24395 ft | 345 kts | 300° |
| 2026-04-30 20:34 | 54.22072 | 38.46652 | 23715 ft | 344 kts | 299° |
| 2026-04-30 20:34 | 54.24435 | 38.39587 | 22978 ft | 341 kts | 300° |
| 2026-04-30 20:35 | 54.25589 | 38.36129 | 22644 ft | 338 kts | 300° |
| 2026-04-30 20:35 | 54.26751 | 38.32641 | 22318 ft | 336 kts | 300° |
| 2026-04-30 20:35 | 54.29050 | 38.25732 | 21656 ft | 332 kts | 300° |
| 2026-04-30 20:36 | 54.30189 | 38.22301 | 21332 ft | 331 kts | 300° |
| 2026-04-30 20:36 | 54.31320 | 38.18890 | 21010 ft | 329 kts | 300° |
| 2026-04-30 20:36 | 54.33567 | 38.12097 | 20363 ft | 326 kts | 300° |
| 2026-04-30 20:37 | 54.34666 | 38.08766 | 20045 ft | 325 kts | 300° |
| 2026-04-30 20:37 | 54.35778 | 38.05395 | 19733 ft | 324 kts | 300° |
| 2026-04-30 20:37 | 54.36882 | 38.02041 | 19415 ft | 323 kts | 300° |
| 2026-04-30 20:37 | 54.37984 | 37.98690 | 19104 ft | 322 kts | 300° |
| 2026-04-30 20:38 | 54.39080 | 37.95349 | 18787 ft | 321 kts | 300° |
| 2026-04-30 20:38 | 54.40174 | 37.92015 | 18465 ft | 320 kts | 300° |
| 2026-04-30 20:38 | 54.41263 | 37.88688 | 18109 ft | 320 kts | 300° |
| 2026-04-30 20:39 | 54.43425 | 37.82068 | 17471 ft | 316 kts | 300° |
| 2026-04-30 20:39 | 54.44496 | 37.78784 | 17157 ft | 315 kts | 300° |
| 2026-04-30 20:39 | 54.45549 | 37.75550 | 16848 ft | 313 kts | 300° |
| 2026-04-30 20:40 | 54.47664 | 37.69043 | 16223 ft | 311 kts | 300° |
| 2026-04-30 20:40 | 54.48715 | 37.65800 | 15915 ft | 310 kts | 300° |
| 2026-04-30 20:40 | 54.49761 | 37.62572 | 15609 ft | 309 kts | 300° |
| 2026-04-30 20:41 | 54.51842 | 37.56133 | 14997 ft | 307 kts | 300° |
| 2026-04-30 20:41 | 54.52878 | 37.52921 | 14682 ft | 307 kts | 300° |
| 2026-04-30 20:41 | 54.53913 | 37.49709 | 14380 ft | 306 kts | 300° |
| 2026-04-30 20:41 | 54.54944 | 37.46505 | 14074 ft | 306 kts | 300° |
| 2026-04-30 20:42 | 54.55960 | 37.43342 | 13742 ft | 305 kts | 300° |
| 2026-04-30 20:42 | 54.56985 | 37.40151 | 13420 ft | 304 kts | 300° |
| 2026-04-30 20:42 | 54.58989 | 37.33893 | 12652 ft | 293 kts | 300° |
| 2026-04-30 20:43 | 54.59988 | 37.30888 | 12319 ft | 285 kts | 307° |
| 2026-04-30 20:43 | 54.61438 | 37.28700 | 12039 ft | 275 kts | 334° |
| 2026-04-30 20:43 | 54.63261 | 37.27799 | 11849 ft | 273 kts | 354° |
| 2026-04-30 20:44 | 54.66939 | 37.29005 | 11492 ft | 274 kts | 17° |
| 2026-04-30 20:44 | 54.68756 | 37.30025 | 11301 ft | 276 kts | 17° |
| 2026-04-30 20:44 | 54.72426 | 37.32061 | 10916 ft | 278 kts | 17° |
| 2026-04-30 20:45 | 54.76124 | 37.34013 | 10525 ft | 276 kts | 9° |
| 2026-04-30 20:45 | 54.78023 | 37.34247 | 10350 ft | 272 kts | 0° |
| 2026-04-30 20:45 | 54.79906 | 37.34277 | 10162 ft | 269 kts | 0° |
| 2026-04-30 20:46 | 54.85362 | 37.34445 | 9603 ft | 256 kts | 1° |
| 2026-04-30 20:46 | 54.87122 | 37.34525 | 9434 ft | 257 kts | 1° |
| 2026-04-30 20:47 | 54.90680 | 37.34699 | 9076 ft | 252 kts | 1° |
| 2026-04-30 20:47 | 54.92411 | 37.34786 | 9007 ft | 246 kts | 1° |
| 2026-04-30 20:48 | 54.95774 | 37.34978 | 8997 ft | 242 kts | 1° |
| 2026-04-30 20:48 | 54.97471 | 37.35075 | 9008 ft | 246 kts | 1° |
| 2026-04-30 20:48 | 54.99196 | 37.35174 | 9006 ft | 249 kts | 1° |
| 2026-04-30 20:48 | 55.00895 | 37.35272 | 8993 ft | 247 kts | 1° |
| 2026-04-30 20:49 | 55.02597 | 37.35370 | 8981 ft | 242 kts | 1° |
| 2026-04-30 20:49 | 55.04270 | 37.35466 | 8748 ft | 239 kts | 1° |
| 2026-04-30 20:49 | 55.05917 | 37.35561 | 8511 ft | 234 kts | 1° |
| 2026-04-30 20:50 | 55.09136 | 37.35747 | 8084 ft | 230 kts | 1° |
| 2026-04-30 20:50 | 55.10738 | 37.35839 | 7867 ft | 230 kts | 1° |
| 2026-04-30 20:50 | 55.12336 | 37.35931 | 7650 ft | 230 kts | 1° |
| 2026-04-30 20:50 | 55.13935 | 37.36024 | 7433 ft | 230 kts | 1° |
| 2026-04-30 20:51 | 55.15513 | 37.36115 | 7222 ft | 230 kts | 1° |
| 2026-04-30 20:51 | 55.18724 | 37.36301 | 6784 ft | 231 kts | 1° |
| 2026-04-30 20:51 | 55.20335 | 37.36395 | 6564 ft | 232 kts | 1° |
| 2026-04-30 20:52 | 55.21960 | 37.36489 | 6336 ft | 233 kts | 1° |
| 2026-04-30 20:52 | 55.23576 | 37.36583 | 6097 ft | 231 kts | 1° |
| 2026-04-30 20:52 | 55.26744 | 37.36768 | 5652 ft | 227 kts | 1° |
| 2026-04-30 20:53 | 55.28311 | 37.36859 | 5435 ft | 224 kts | 1° |
| 2026-04-30 20:53 | 55.29868 | 37.36950 | 5227 ft | 224 kts | 1° |
| 2026-04-30 20:53 | 55.31411 | 37.36772 | 4995 ft | 223 kts | 339° |
| 2026-04-30 20:54 | 55.33709 | 37.33292 | 4621 ft | 223 kts | 314° |
| 2026-04-30 20:54 | 55.34782 | 37.31303 | 4404 ft | 225 kts | 314° |
| 2026-04-30 20:54 | 55.35856 | 37.29315 | 4176 ft | 224 kts | 314° |
| 2026-04-30 20:55 | 55.37953 | 37.25427 | 3893 ft | 218 kts | 313° |
| 2026-04-30 20:55 | 55.38996 | 37.23485 | 3805 ft | 219 kts | 313° |
| 2026-04-30 20:55 | 55.40048 | 37.21527 | 3720 ft | 221 kts | 313° |
| 2026-04-30 20:56 | 55.42175 | 37.17562 | 3523 ft | 222 kts | 313° |
| 2026-04-30 20:56 | 55.43232 | 37.15592 | 3428 ft | 220 kts | 313° |
| 2026-04-30 20:56 | 55.45374 | 37.12094 | 3256 ft | 198 kts | 320° |
| 2026-04-30 20:57 | 55.46420 | 37.10552 | 3172 ft | 195 kts | 320° |
| 2026-04-30 20:57 | 55.47443 | 37.09034 | 3088 ft | 195 kts | 320° |
| 2026-04-30 20:57 | 55.48463 | 37.07515 | 3030 ft | 187 kts | 320° |
| 2026-04-30 20:58 | 55.50665 | 37.05576 | 2823 ft | 178 kts | 342° |
| 2026-04-30 20:58 | 55.51846 | 37.04891 | 2687 ft | 179 kts | 341° |
| 2026-04-30 20:58 | 55.53020 | 37.04246 | 2545 ft | 173 kts | 350° |
| 2026-04-30 20:58 | 55.54120 | 37.04707 | 2441 ft | 166 kts | 41° |
| 2026-04-30 20:59 | 55.55174 | 37.08387 | 2237 ft | 169 kts | 65° |
| 2026-04-30 20:59 | 55.55612 | 37.10265 | 2118 ft | 167 kts | 67° |
| 2026-04-30 21:00 | 55.56457 | 37.14054 | 1897 ft | 165 kts | 67° |
| 2026-04-30 21:00 | 55.57266 | 37.17672 | 1441 ft | 153 kts | 67° |
| 2026-04-30 21:01 | 55.58030 | 37.21124 | 1024 ft | 150 kts | 68° |
| 2026-04-30 21:01 | 55.58405 | 37.22831 | 809 ft | 148 kts | 68° |
| 2026-04-30 21:01 | 55.59092 | 37.25869 | 668 ft | 103 kts | 68° |
| 2026-04-30 21:02 | 55.59302 | 37.26802 | 668 ft | 60 kts | 68° |
| 2026-04-30 21:02 | 55.59385 | 37.27173 | 667 ft | 23 kts | 68° |
| 2026-04-30 21:02 | 55.59439 | 37.27345 | 673 ft | 12 kts | 52° |
| 2026-04-30 21:02 | 55.59484 | 37.27443 | 673 ft | 10 kts | 48° |
| 2026-04-30 21:03 | 55.59532 | 37.27521 | 672 ft | 8 kts | 38° |
| 2026-04-30 21:03 | 55.59574 | 37.27579 | 675 ft | 8 kts | 38° |
| 2026-04-30 21:03 | 55.59614 | 37.27635 | 678 ft | 7 kts | 38° |
| 2026-04-30 21:03 | 55.59653 | 37.27690 | 675 ft | 7 kts | 38° |
| 2026-04-30 21:04 | 55.59694 | 37.27736 | 678 ft | 7 kts | 27° |
| 2026-04-30 21:04 | 55.59743 | 37.27773 | 678 ft | 8 kts | 19° |
| 2026-04-30 21:04 | 55.59843 | 37.27830 | 678 ft | 7 kts | 18° |
| 2026-04-30 21:05 | 55.59891 | 37.27857 | 678 ft | 7 kts | 18° |
| 2026-04-30 21:05 | 55.59935 | 37.27888 | 679 ft | 7 kts | 32° |
| 2026-04-30 21:05 | 55.59948 | 37.27962 | 679 ft | 7 kts | 101° |
| 2026-04-30 21:05 | 55.59939 | 37.28044 | 676 ft | 7 kts | 99° |
| 2026-04-30 21:06 | 55.59935 | 37.28127 | 679 ft | 7 kts | 90° |
| 2026-04-30 21:06 | 55.59958 | 37.28189 | 678 ft | 6 kts | 20° |
| 2026-04-30 21:06 | 55.59997 | 37.28192 | 678 ft | 5 kts | 355° |
| 2026-04-30 21:06 | 55.60008 | 37.28190 | 678 ft | 0 kts | 355° |